createdAt,value
2023-01-03T00:00:04.289Z,1.39
2023-01-03T00:01:04.307Z,0.68
2023-01-03T00:02:03.598Z,1.35
2023-01-03T00:03:03.801Z,1.42
2023-01-03T00:04:04.408Z,1.76
2023-01-03T00:05:04.477Z,1.93
2023-01-03T00:06:03.618Z,1.15
2023-01-03T00:07:04.462Z,1.69
2023-01-03T00:08:03.799Z,1.12
2023-01-03T00:09:03.948Z,1.78
2023-01-03T00:10:04.113Z,1.07
2023-01-03T00:11:04.357Z,1.52
2023-01-03T00:12:03.867Z,1.92
2023-01-03T00:13:04.058Z,1.32
2023-01-03T00:14:04.116Z,2.15
2023-01-03T00:15:04.284Z,1.27
2023-01-03T00:16:02.714Z,1.68
2023-01-03T00:17:03.740Z,1.21
2023-01-03T00:18:03.950Z,1.65
2023-01-03T00:19:04.208Z,2.13
2023-01-03T00:20:04.440Z,1.05
2023-01-03T00:21:04.616Z,1.3
2023-01-03T00:22:03.996Z,3.62
2023-01-03T00:23:04.565Z,0.99
2023-01-03T00:24:03.518Z,1.09
2023-01-03T00:25:04.023Z,0.75
2023-01-03T00:26:04.153Z,0.99
2023-01-03T00:27:04.361Z,1.14
2023-01-03T00:28:03.290Z,1.06
2023-01-03T00:29:04.261Z,0.84
2023-01-03T00:30:04.573Z,1.02
2023-01-03T00:31:04.412Z,0.86
2023-01-03T00:32:04.451Z,0.91
2023-01-03T00:33:03.754Z,1.31
2023-01-03T00:34:04.220Z,0.72
2023-01-03T00:35:07.554Z,0.96
2023-01-03T00:36:03.853Z,1.98
2023-01-03T00:37:03.918Z,0.61
2023-01-03T00:38:03.836Z,1.83
2023-01-03T00:39:04.371Z,0.67
2023-01-03T00:40:04.258Z,0.58
2023-01-03T00:41:03.492Z,0.95
2023-01-03T00:42:03.804Z,0.75
2023-01-03T00:43:03.634Z,1.19
2023-01-03T00:44:03.864Z,1.19
2023-01-03T00:45:03.778Z,0.61
2023-01-03T00:46:03.770Z,0.8
2023-01-03T00:47:04.010Z,0.8
2023-01-03T00:48:04.216Z,0.58
2023-01-03T00:49:03.124Z,0.45
2023-01-03T00:50:04.366Z,0.88
2023-01-03T00:51:04.320Z,0.37
2023-01-03T00:52:04.031Z,0.51
2023-01-03T00:53:03.346Z,0.54
2023-01-03T00:54:03.522Z,0.46
2023-01-03T00:55:04.204Z,0.75
2023-01-03T00:56:03.625Z,0.49
2023-01-03T00:57:04.123Z,0.49
2023-01-03T00:58:04.095Z,0.81
2023-01-03T00:59:04.307Z,0.48
2023-01-03T01:00:03.687Z,0.46
2023-01-03T01:01:04.028Z,1.14
2023-01-03T01:02:03.944Z,0.33
2023-01-03T01:03:04.377Z,0.66
2023-01-03T01:04:04.090Z,0.59
2023-01-03T01:05:04.179Z,0.5
2023-01-03T01:06:03.660Z,0.55
2023-01-03T01:07:04.067Z,0.4
2023-01-03T01:08:04.258Z,1.26
2023-01-03T01:09:04.178Z,0.65
2023-01-03T01:10:04.204Z,0.38
2023-01-03T01:11:04.225Z,0.38
2023-01-03T01:12:03.520Z,0.91
2023-01-03T01:13:03.450Z,0.59
2023-01-03T01:14:03.962Z,0.44
2023-01-03T01:15:04.042Z,0.68
2023-01-03T01:16:03.881Z,0.32
2023-01-03T01:17:04.130Z,0.38
2023-01-03T01:18:04.331Z,0.61
2023-01-03T01:19:04.302Z,0.68
2023-01-03T01:20:04.561Z,0.62
2023-01-03T01:21:04.139Z,0.4
2023-01-03T01:22:03.973Z,0.41
2023-01-03T01:23:04.295Z,0.36
2023-01-03T01:24:03.749Z,0.49
2023-01-03T01:25:04.105Z,0.35
2023-01-03T01:26:04.105Z,1.53
2023-01-03T01:27:03.904Z,0.48
2023-01-03T01:28:04.405Z,0.5
2023-01-03T01:29:04.243Z,0.67
2023-01-03T01:30:04.603Z,0.59
2023-01-03T01:31:04.612Z,0.41
2023-01-03T01:32:04.079Z,0.74
2023-01-03T01:33:03.647Z,0.71
2023-01-03T01:34:03.988Z,1.02
2023-01-03T01:35:04.307Z,1.02
2023-01-03T01:36:04.039Z,0.54
2023-01-03T01:37:04.439Z,0.42
2023-01-03T01:38:03.753Z,0.38
2023-01-03T01:39:03.987Z,0.54
2023-01-03T01:40:03.703Z,0.39
2023-01-03T01:41:04.027Z,0.55
2023-01-03T01:42:02.711Z,0.44
2023-01-03T01:43:03.572Z,0.44
2023-01-03T01:44:03.710Z,0.4
2023-01-03T01:45:04.406Z,0.46
2023-01-03T01:46:03.993Z,0.59
2023-01-03T01:47:04.035Z,0.51
2023-01-03T01:48:04.372Z,0.32
2023-01-03T01:49:04.417Z,0.84
2023-01-03T01:50:03.847Z,0.74
2023-01-03T01:51:04.268Z,0.35
2023-01-03T01:52:04.372Z,0.79
2023-01-03T01:53:04.200Z,0.91
2023-01-03T01:54:04.171Z,0.63
2023-01-03T01:55:03.005Z,0.6
2023-01-03T01:56:04.036Z,0.39
2023-01-03T01:57:04.267Z,0.36
2023-01-03T01:58:02.659Z,0.54
2023-01-03T01:59:04.383Z,0.51
2023-01-03T02:00:03.884Z,0.7
2023-01-03T02:01:03.942Z,0.43
2023-01-03T02:02:04.898Z,0.52
2023-01-03T02:03:03.742Z,0.3
2023-01-03T02:04:03.989Z,0.54
2023-01-03T02:05:04.188Z,0.28
2023-01-03T02:06:04.646Z,0.41
2023-01-03T02:07:03.352Z,0.46
2023-01-03T02:08:04.530Z,0.59
2023-01-03T02:09:03.345Z,0.4
2023-01-03T02:10:04.272Z,0.45
2023-01-03T02:11:03.757Z,0.36
2023-01-03T02:12:04.077Z,0.4
2023-01-03T02:13:03.945Z,0.63
2023-01-03T02:14:03.977Z,1.23
2023-01-03T02:15:04.164Z,0.3
2023-01-03T02:16:04.443Z,0.48
2023-01-03T02:17:03.734Z,0.32
2023-01-03T02:18:04.054Z,0.38
2023-01-03T02:19:04.315Z,0.36
2023-01-03T02:20:03.586Z,0.55
2023-01-03T02:21:04.210Z,0.62
2023-01-03T02:22:04.527Z,0.33
2023-01-03T02:23:04.105Z,0.47
2023-01-03T02:24:03.980Z,0.48
2023-01-03T02:25:04.257Z,0.48
2023-01-03T02:26:03.637Z,0.42
2023-01-03T02:27:03.897Z,0.42
2023-01-03T02:28:04.066Z,0.41
2023-01-03T02:29:03.751Z,0.34
2023-01-03T02:30:04.366Z,0.34
2023-01-03T02:31:04.098Z,0.47
2023-01-03T02:32:03.450Z,0.39
2023-01-03T02:33:02.720Z,0.51
2023-01-03T02:34:02.726Z,0.31
2023-01-03T02:35:03.728Z,0.44
2023-01-03T02:36:04.240Z,0.48
2023-01-03T02:37:03.656Z,0.8
2023-01-03T02:38:03.894Z,0.4
2023-01-03T02:39:04.408Z,0.3
2023-01-03T02:40:03.861Z,0.36
2023-01-03T02:41:04.235Z,0.43
2023-01-03T02:42:03.708Z,0.42
2023-01-03T02:43:03.800Z,0.69
2023-01-03T02:44:03.947Z,0.31
2023-01-03T02:45:03.628Z,0.62
2023-01-03T02:46:04.208Z,0.41
2023-01-03T02:47:04.236Z,0.49
2023-01-03T02:48:03.950Z,0.49
2023-01-03T02:49:04.131Z,0.41
2023-01-03T02:50:03.698Z,0.32
2023-01-03T02:51:03.855Z,0.34
2023-01-03T02:52:03.664Z,0.24
2023-01-03T02:53:03.891Z,0.31
2023-01-03T02:54:03.513Z,0.36
2023-01-03T02:55:03.928Z,0.32
2023-01-03T02:56:04.175Z,0.57
2023-01-03T02:57:04.139Z,0.39
2023-01-03T02:58:04.137Z,0.99
2023-01-03T02:59:03.059Z,0.32
2023-01-03T03:00:04.042Z,0.54
2023-01-03T03:01:04.675Z,0.51
2023-01-03T03:02:04.846Z,0.41
2023-01-03T03:03:04.290Z,0.45
2023-01-03T03:04:04.212Z,0.54
2023-01-03T03:05:04.258Z,0.45
2023-01-03T03:06:04.336Z,0.36
2023-01-03T03:07:04.396Z,0.36
2023-01-03T03:08:03.703Z,0.52
2023-01-03T03:09:04.354Z,0.5
2023-01-03T03:10:03.698Z,0.36
2023-01-03T03:11:02.779Z,0.35
2023-01-03T03:12:04.367Z,0.51
2023-01-03T03:13:03.904Z,0.35
2023-01-03T03:14:03.843Z,0.36
2023-01-03T03:15:04.114Z,0.42
2023-01-03T03:16:04.380Z,0.83
2023-01-03T03:17:03.836Z,0.32
2023-01-03T03:18:04.057Z,0.32
2023-01-03T03:19:04.355Z,0.41
2023-01-03T03:20:08.901Z,0.82
2023-01-03T03:21:03.943Z,0.31
2023-01-03T03:22:04.229Z,0.45
2023-01-03T03:23:04.516Z,0.42
2023-01-03T03:24:03.826Z,0.35
2023-01-03T03:25:03.995Z,0.3
2023-01-03T03:26:04.440Z,0.41
2023-01-03T03:27:03.661Z,0.46
2023-01-03T03:28:04.023Z,0.46
2023-01-03T03:29:04.017Z,0.38
2023-01-03T03:30:04.381Z,0.31
2023-01-03T03:31:04.117Z,0.51
2023-01-03T03:32:04.430Z,0.41
2023-01-03T03:33:03.681Z,0.52
2023-01-03T03:34:04.088Z,0.43
2023-01-03T03:35:03.808Z,0.35
2023-01-03T03:36:03.841Z,0.42
2023-01-03T03:37:03.692Z,0.39
2023-01-03T03:38:03.783Z,0.54
2023-01-03T03:39:04.483Z,0.54
2023-01-03T03:40:03.605Z,0.56
2023-01-03T03:41:04.259Z,0.7
2023-01-03T03:42:04.373Z,2.66
2023-01-03T03:43:03.718Z,0.51
2023-01-03T03:44:04.022Z,0.55
2023-01-03T03:45:04.569Z,1.39
2023-01-03T03:46:04.117Z,0.68
2023-01-03T03:47:06.573Z,0.79
2023-01-03T03:48:03.838Z,0.4
2023-01-03T03:49:04.049Z,0.61
2023-01-03T03:50:03.714Z,0.51
2023-01-03T03:51:04.012Z,0.31
2023-01-03T03:52:04.238Z,0.64
2023-01-03T03:53:04.380Z,0.49
2023-01-03T03:54:04.353Z,0.49
2023-01-03T03:55:03.696Z,0.58
2023-01-03T03:56:03.884Z,0.58
2023-01-03T03:57:04.437Z,0.38
2023-01-03T03:58:04.521Z,0.52
2023-01-03T03:59:04.223Z,0.34
2023-01-03T04:00:04.260Z,0.58
2023-01-03T04:01:03.691Z,0.55
2023-01-03T04:02:04.503Z,0.84
2023-01-03T04:03:04.096Z,0.52
2023-01-03T04:04:04.026Z,0.65
2023-01-03T04:05:02.649Z,0.81
2023-01-03T04:06:04.721Z,0.81
2023-01-03T04:07:03.911Z,0.88
2023-01-03T04:08:04.429Z,1.25
2023-01-03T04:09:03.641Z,1.93
2023-01-03T04:10:04.125Z,1.93
2023-01-03T04:11:04.556Z,1.54
2023-01-03T04:12:04.371Z,2.07
2023-01-03T04:13:03.665Z,2.07
2023-01-03T04:14:03.872Z,1.76
2023-01-03T04:15:03.778Z,1.21
2023-01-03T04:16:04.065Z,0.9
2023-01-03T04:17:03.715Z,0.8
2023-01-03T04:18:03.812Z,0.98
2023-01-03T04:19:04.060Z,0.75
2023-01-03T04:20:04.150Z,0.98
2023-01-03T04:21:04.572Z,0.65
2023-01-03T04:22:04.124Z,0.68
2023-01-03T04:23:04.115Z,0.74
2023-01-03T04:24:04.272Z,0.65
2023-01-03T04:25:03.616Z,0.66
2023-01-03T04:26:04.422Z,0.52
2023-01-03T04:27:03.715Z,0.86
2023-01-03T04:28:03.255Z,1.32
2023-01-03T04:29:03.445Z,0.46
2023-01-03T04:30:04.317Z,0.55
2023-01-03T04:31:04.009Z,0.42
2023-01-03T04:32:03.872Z,0.77
2023-01-03T04:33:03.446Z,0.66
2023-01-03T04:34:04.433Z,0.54
2023-01-03T04:35:03.894Z,1.09
2023-01-03T04:36:03.596Z,0.48
2023-01-03T04:37:04.022Z,0.49
2023-01-03T04:38:04.196Z,0.44
2023-01-03T04:39:03.738Z,0.59
2023-01-03T04:40:03.966Z,0.29
2023-01-03T04:41:04.313Z,0.4
2023-01-03T04:42:04.313Z,0.44
2023-01-03T04:43:04.236Z,0.39
2023-01-03T04:44:03.051Z,0.49
2023-01-03T04:45:04.317Z,0.61
2023-01-03T04:46:04.426Z,0.45
2023-01-03T04:47:03.915Z,0.7
2023-01-03T04:48:03.594Z,0.61
2023-01-03T04:49:03.563Z,0.64
2023-01-03T04:50:03.809Z,0.83
2023-01-03T04:51:03.989Z,0.92
2023-01-03T04:52:03.834Z,0.51
2023-01-03T04:53:04.159Z,0.42
2023-01-03T04:54:04.361Z,0.62
2023-01-03T04:55:03.411Z,0.52
2023-01-03T04:56:04.022Z,0.88
2023-01-03T04:57:03.962Z,0.59
2023-01-03T04:58:04.002Z,0.59
2023-01-03T04:59:03.174Z,0.65
2023-01-03T05:00:04.227Z,0.69
2023-01-03T05:01:04.384Z,0.74
2023-01-03T05:02:04.853Z,0.54
2023-01-03T05:03:03.934Z,0.55
2023-01-03T05:04:04.342Z,0.56
2023-01-03T05:05:03.875Z,0.59
2023-01-03T05:06:04.081Z,0.67
2023-01-03T05:07:04.286Z,0.52
2023-01-03T05:08:04.131Z,0.66
2023-01-03T05:09:03.677Z,0.46
2023-01-03T05:10:03.727Z,0.51
2023-01-03T05:11:03.877Z,0.77
2023-01-03T05:12:03.577Z,0.88
2023-01-03T05:13:04.319Z,0.46
2023-01-03T05:14:05.979Z,0.56
2023-01-03T05:15:04.158Z,0.79
2023-01-03T05:16:03.825Z,0.51
2023-01-03T05:17:03.879Z,0.58
2023-01-03T05:18:04.404Z,0.55
2023-01-03T05:19:04.315Z,0.39
2023-01-03T05:20:03.551Z,0.3
2023-01-03T05:21:03.880Z,0.71
2023-01-03T05:22:03.697Z,0.4
2023-01-03T05:23:03.931Z,0.68
2023-01-03T05:24:03.960Z,0.64
2023-01-03T05:25:04.665Z,0.54
2023-01-03T05:26:03.285Z,0.62
2023-01-03T05:27:02.972Z,0.56
2023-01-03T05:28:03.551Z,0.53
2023-01-03T05:29:03.611Z,0.52
2023-01-03T05:30:04.040Z,0.81
2023-01-03T05:31:03.557Z,0.48
2023-01-03T05:32:04.270Z,0.51
2023-01-03T05:33:04.352Z,0.55
2023-01-03T05:34:03.189Z,0.75
2023-01-03T05:35:03.831Z,0.59
2023-01-03T05:36:02.634Z,0.94
2023-01-03T05:37:04.118Z,0.62
2023-01-03T05:38:04.203Z,0.43
2023-01-03T05:39:03.610Z,0.41
2023-01-03T05:40:04.217Z,0.61
2023-01-03T05:41:04.387Z,0.44
2023-01-03T05:42:04.226Z,0.41
2023-01-03T05:43:04.281Z,0.4
2023-01-03T05:44:04.100Z,0.6
2023-01-03T05:45:04.552Z,0.57
2023-01-03T05:46:04.543Z,0.5
2023-01-03T05:47:03.899Z,0.44
2023-01-03T05:48:04.499Z,0.37
2023-01-03T05:49:04.191Z,0.37
2023-01-03T05:50:03.691Z,0.55
2023-01-03T05:51:04.194Z,0.54
2023-01-03T05:52:04.032Z,0.62
2023-01-03T05:53:04.220Z,0.43
2023-01-03T05:54:03.663Z,0.51
2023-01-03T05:55:03.936Z,0.51
2023-01-03T05:56:04.411Z,0.6
2023-01-03T05:57:04.500Z,0.45
2023-01-03T05:58:04.611Z,0.7
2023-01-03T05:59:03.209Z,0.59
2023-01-03T06:00:02.876Z,0.51
2023-01-03T06:01:03.927Z,0.68
2023-01-03T06:02:04.413Z,0.78
2023-01-03T06:03:03.992Z,0.76
2023-01-03T06:04:04.338Z,0.59
2023-01-03T06:05:04.096Z,0.53
2023-01-03T06:06:03.762Z,0.47
2023-01-03T06:07:04.006Z,0.54
2023-01-03T06:08:04.069Z,0.49
2023-01-03T06:09:03.648Z,0.68
2023-01-03T06:10:03.671Z,0.45
2023-01-03T06:11:04.129Z,0.56
2023-01-03T06:12:03.957Z,0.52
2023-01-03T06:13:02.847Z,0.9
2023-01-03T06:14:03.863Z,0.56
2023-01-03T06:15:03.692Z,0.61
2023-01-03T06:16:03.830Z,0.91
2023-01-03T06:17:04.297Z,0.36
2023-01-03T06:18:04.419Z,0.58
2023-01-03T06:19:03.794Z,0.49
2023-01-03T06:20:04.091Z,0.96
2023-01-03T06:21:04.378Z,0.57
2023-01-03T06:22:10.686Z,0.65
2023-01-03T06:23:04.289Z,0.49
2023-01-03T06:24:04.449Z,0.54
2023-01-03T06:25:04.320Z,1.42
2023-01-03T06:26:03.702Z,1.51
2023-01-03T06:27:03.791Z,1.74
2023-01-03T06:28:04.365Z,1.92
2023-01-03T06:29:04.136Z,1.58
2023-01-03T06:30:03.740Z,2.42
2023-01-03T06:31:04.359Z,1.46
2023-01-03T06:32:11.275Z,2.15
2023-01-03T06:33:03.808Z,2.06
2023-01-03T06:34:03.665Z,2.03
2023-01-03T06:35:03.985Z,1.76
2023-01-03T06:36:04.139Z,1.94
2023-01-03T06:37:03.420Z,0.65
2023-01-03T06:38:04.492Z,0.65
2023-01-03T06:39:03.742Z,0.9
2023-01-03T06:40:04.524Z,0.9
2023-01-03T06:41:04.358Z,0.72
2023-01-03T06:42:04.184Z,1.06
2023-01-03T06:43:04.708Z,0.92
2023-01-03T06:44:03.732Z,0.59
2023-01-03T06:45:04.000Z,0.99
2023-01-03T06:46:04.140Z,0.91
2023-01-03T06:47:04.111Z,0.73
2023-01-03T06:48:03.923Z,0.74
2023-01-03T06:49:04.282Z,0.88
2023-01-03T06:50:04.063Z,1.1
2023-01-03T06:51:04.077Z,0.81
2023-01-03T06:52:03.777Z,0.53
2023-01-03T06:53:04.031Z,0.95
2023-01-03T06:54:04.227Z,0.72
2023-01-03T06:55:03.800Z,0.94
2023-01-03T06:56:03.714Z,0.69
2023-01-03T06:57:03.515Z,0.58
2023-01-03T06:58:04.383Z,0.66
2023-01-03T06:59:03.579Z,1.25
2023-01-03T07:00:03.955Z,1.25
2023-01-03T07:01:03.997Z,1.35
2023-01-03T07:02:04.040Z,0.93
2023-01-03T07:03:12.896Z,0.85
2023-01-03T07:04:04.092Z,1.02
2023-01-03T07:05:04.239Z,0.64
2023-01-03T07:06:03.748Z,0.86
2023-01-03T07:07:03.960Z,1.24
2023-01-03T07:08:03.492Z,0.84
2023-01-03T07:09:03.810Z,0.73
2023-01-03T07:10:02.749Z,0.97
2023-01-03T07:11:03.936Z,1.29
2023-01-03T07:12:04.350Z,0.88
2023-01-03T07:13:03.932Z,0.89
2023-01-03T07:14:04.207Z,0.73
2023-01-03T07:15:03.615Z,0.76
2023-01-03T07:16:04.709Z,0.79
2023-01-03T07:17:04.291Z,0.79
2023-01-03T07:18:03.742Z,0.76
2023-01-03T07:19:03.190Z,1.02
2023-01-03T07:20:03.931Z,0.62
2023-01-03T07:21:04.152Z,0.86
2023-01-03T07:22:03.782Z,0.88
2023-01-03T07:23:04.270Z,0.96
2023-01-03T07:24:04.471Z,0.45
2023-01-03T07:25:03.688Z,0.76
2023-01-03T07:26:04.366Z,1.35
2023-01-03T07:27:03.829Z,0.74
2023-01-03T07:28:10.930Z,1.12
2023-01-03T07:29:03.987Z,1.12
2023-01-03T07:30:04.027Z,1.74
2023-01-03T07:31:03.754Z,1.17
2023-01-03T07:32:03.498Z,1.17
2023-01-03T07:33:04.402Z,1.33
2023-01-03T07:34:02.898Z,0.98
2023-01-03T07:35:04.251Z,0.98
2023-01-03T07:36:11.424Z,1.58
2023-01-03T07:37:04.414Z,0.86
2023-01-03T07:38:03.793Z,1.1
2023-01-03T07:39:04.081Z,1.15
2023-01-03T07:40:04.130Z,1.11
2023-01-03T07:41:03.908Z,0.86
2023-01-03T07:42:03.664Z,0.98
2023-01-03T07:43:04.633Z,0.93
2023-01-03T07:44:04.602Z,0.64
2023-01-03T07:45:04.049Z,1.12
2023-01-03T07:46:04.552Z,0.76
2023-01-03T07:47:04.113Z,0.65
2023-01-03T07:48:04.222Z,0.86
2023-01-03T07:49:11.378Z,0.86
2023-01-03T07:50:04.273Z,0.86
2023-01-03T07:51:04.402Z,0.64
2023-01-03T07:52:03.615Z,0.59
2023-01-03T07:53:03.756Z,1.3
2023-01-03T07:54:03.895Z,0.82
2023-01-03T07:55:04.171Z,0.68
2023-01-03T07:56:06.503Z,0.74
2023-01-03T07:57:03.476Z,0.46
2023-01-03T07:58:03.786Z,0.95
2023-01-03T07:59:03.982Z,0.98
2023-01-03T08:00:04.012Z,0.59
2023-01-03T08:01:04.121Z,0.56
2023-01-03T08:02:03.996Z,1.42
2023-01-03T08:03:07.719Z,1.14
2023-01-03T08:04:04.217Z,0.81
2023-01-03T08:05:03.199Z,1.04
2023-01-03T08:06:02.902Z,0.95
2023-01-03T08:07:03.027Z,0.68
2023-01-03T08:08:04.410Z,0.71
2023-01-03T08:09:08.312Z,1.04
2023-01-03T08:10:04.093Z,0.83
2023-01-03T08:11:04.046Z,1.01
2023-01-03T08:12:04.156Z,0.87
2023-01-03T08:13:03.038Z,0.7
2023-01-03T08:14:04.010Z,0.96
2023-01-03T08:15:04.523Z,0.52
2023-01-03T08:16:04.315Z,0.6
2023-01-03T08:17:04.125Z,1.39
2023-01-03T08:18:04.297Z,1.39
2023-01-03T08:19:03.644Z,2.2
2023-01-03T08:20:03.840Z,2.2
2023-01-03T08:21:04.089Z,1.55
2023-01-03T08:22:04.265Z,1.86
2023-01-03T08:23:03.640Z,1.86
2023-01-03T08:24:03.588Z,1.48
2023-01-03T08:25:03.845Z,1.46
2023-01-03T08:26:02.726Z,1.52
2023-01-03T08:27:03.643Z,1.66
2023-01-03T08:28:03.208Z,1.82
2023-01-03T08:29:03.654Z,1.81
2023-01-03T08:30:04.359Z,1.74
2023-01-03T08:31:04.151Z,1.7
2023-01-03T08:32:04.426Z,3.38
2023-01-03T08:33:03.980Z,1.5
2023-01-03T08:34:06.423Z,1.14
2023-01-03T08:35:03.926Z,1.52
2023-01-03T08:36:04.060Z,1.45
2023-01-03T08:37:04.479Z,2.28
2023-01-03T08:38:03.663Z,1.18
2023-01-03T08:39:03.653Z,1.75
2023-01-03T08:40:04.222Z,1.49
2023-01-03T08:41:04.043Z,1.37
2023-01-03T08:42:03.754Z,1.07
2023-01-03T08:43:03.861Z,0.78
2023-01-03T08:44:04.076Z,0.99
2023-01-03T08:45:03.818Z,1.39
2023-01-03T08:46:04.467Z,1.71
2023-01-03T08:47:03.922Z,1.31
2023-01-03T08:48:04.372Z,1.41
2023-01-03T08:49:03.638Z,1.52
2023-01-03T08:50:04.024Z,1.85
2023-01-03T08:51:04.132Z,1.49
2023-01-03T08:52:03.753Z,1.8
2023-01-03T08:53:03.799Z,1.34
2023-01-03T08:54:02.957Z,1.56
2023-01-03T08:55:04.436Z,1.31
2023-01-03T08:56:04.050Z,1.78
2023-01-03T08:57:04.790Z,1.64
2023-01-03T08:58:04.282Z,1.4
2023-01-03T08:59:04.541Z,1.57
2023-01-03T09:00:03.842Z,0.89
2023-01-03T09:01:04.462Z,1.66
2023-01-03T09:02:04.173Z,1.05
2023-01-03T09:03:04.568Z,0.96
2023-01-03T09:04:04.650Z,0.87
2023-01-03T09:05:03.005Z,1.11
2023-01-03T09:06:03.105Z,0.92
2023-01-03T09:07:04.424Z,1.21
2023-01-03T09:08:04.248Z,1.09
2023-01-03T09:09:04.383Z,1.09
2023-01-03T09:10:04.420Z,0.96
2023-01-03T09:11:03.600Z,0.77
2023-01-03T09:12:04.304Z,0.77
2023-01-03T09:13:03.735Z,1.65
2023-01-03T09:14:04.141Z,1.19
2023-01-03T09:15:04.279Z,2.59
2023-01-03T09:16:04.642Z,1.31
2023-01-03T09:17:02.884Z,1.54
2023-01-03T09:18:03.988Z,1.49
2023-01-03T09:19:04.246Z,1.66
2023-01-03T09:20:04.114Z,1.22
2023-01-03T09:21:03.734Z,0.95
2023-01-03T09:22:04.010Z,1.39
2023-01-03T09:23:04.296Z,1.08
2023-01-03T09:24:04.365Z,1.55
2023-01-03T09:25:02.681Z,1.46
2023-01-03T09:26:04.068Z,1.48
2023-01-03T09:27:03.650Z,1.24
2023-01-03T09:28:03.784Z,1.24
2023-01-03T09:29:03.479Z,1.03
2023-01-03T09:30:04.003Z,1.14
2023-01-03T09:31:04.347Z,1.11
2023-01-03T09:32:04.422Z,1.78
2023-01-03T09:33:03.758Z,1.15
2023-01-03T09:34:04.027Z,0.94
2023-01-03T09:35:04.321Z,1.66
2023-01-03T09:36:02.726Z,1.1
2023-01-03T09:37:04.349Z,1.06
2023-01-03T09:38:03.764Z,1.26
2023-01-03T09:39:03.756Z,1.12
2023-01-03T09:40:04.181Z,1.19
2023-01-03T09:41:03.637Z,1.18
2023-01-03T09:42:03.862Z,1.74
2023-01-03T09:43:04.424Z,3.65
2023-01-03T09:44:03.649Z,1.74
2023-01-03T09:45:03.888Z,1.89
2023-01-03T09:46:04.048Z,0.96
2023-01-03T09:47:03.784Z,1.59
2023-01-03T09:48:02.615Z,1.53
2023-01-03T09:49:03.853Z,1.37
2023-01-03T09:50:56.962Z,1.36
2023-01-03T09:51:29.675Z,1.05
2023-01-03T09:52:04.415Z,1.92
2023-01-03T09:53:03.576Z,1.2
2023-01-03T09:54:03.918Z,1.51
2023-01-03T09:55:04.069Z,1.57
2023-01-03T09:56:03.956Z,1.1
2023-01-03T09:57:03.997Z,1.29
2023-01-03T09:58:03.621Z,1.58
2023-01-03T09:59:03.927Z,1.79
2023-01-03T10:00:03.941Z,1.79
2023-01-03T10:01:02.741Z,1.25
2023-01-03T10:02:04.674Z,1.34
2023-01-03T10:03:05.036Z,1.38
2023-01-03T10:04:04.220Z,1.15
2023-01-03T10:05:03.673Z,1.55
2023-01-03T10:06:03.880Z,1.04
2023-01-03T10:07:03.507Z,3.51
2023-01-03T10:08:03.892Z,3.05
2023-01-03T10:09:04.077Z,3.07
2023-01-03T10:10:07.938Z,2.48
2023-01-03T10:11:04.239Z,3.13
2023-01-03T10:12:03.954Z,2.31
2023-01-03T10:13:04.107Z,2.62
2023-01-03T10:14:04.443Z,2.68
2023-01-03T10:15:04.498Z,3.45
2023-01-03T10:16:04.529Z,2.29
2023-01-03T10:17:03.957Z,2.37
2023-01-03T10:18:04.135Z,3.98
2023-01-03T10:19:04.383Z,3.21
2023-01-03T10:20:03.624Z,2.22
2023-01-03T10:21:03.765Z,2.58
2023-01-03T10:22:03.636Z,3.21
2023-01-03T10:23:03.898Z,2.25
2023-01-03T10:24:04.095Z,2.31
2023-01-03T10:25:04.352Z,3.23
2023-01-03T10:26:03.653Z,1.86
2023-01-03T10:27:03.867Z,2.26
2023-01-03T10:28:02.790Z,2.33
2023-01-03T10:29:04.521Z,3.11
2023-01-03T10:30:03.786Z,2.43
2023-01-03T10:31:10.112Z,1.75
2023-01-03T10:32:04.262Z,2.24
2023-01-03T10:33:04.286Z,3.39
2023-01-03T10:34:03.954Z,2.95
2023-01-03T10:35:04.261Z,3.54
2023-01-03T10:36:03.692Z,3.47
2023-01-03T10:37:03.935Z,3.01
2023-01-03T10:38:04.341Z,3.37
2023-01-03T10:39:03.933Z,3.11
2023-01-03T10:40:04.443Z,3.95
2023-01-03T10:41:03.542Z,2.01
2023-01-03T10:42:04.060Z,2.21
2023-01-03T10:43:04.332Z,3.71
2023-01-03T10:44:04.558Z,2.59
2023-01-03T10:45:03.553Z,4.05
2023-01-03T10:46:04.282Z,2.66
2023-01-03T10:47:04.472Z,2.64
2023-01-03T10:48:03.683Z,2.46
2023-01-03T10:49:34.489Z,2.46
2023-01-03T10:50:04.497Z,3.16
2023-01-03T10:51:03.777Z,3.86
2023-01-03T10:52:02.979Z,4.19
2023-01-03T10:53:04.027Z,2.52
2023-01-03T10:54:03.930Z,2.76
2023-01-03T10:55:03.839Z,2.76
2023-01-03T10:56:04.479Z,2.05
2023-01-03T10:57:03.755Z,2.71
2023-01-03T10:58:04.399Z,2.51
2023-01-03T10:59:03.813Z,3.19
2023-01-03T11:00:03.659Z,3.28
2023-01-03T11:01:03.475Z,4.16
2023-01-03T11:02:04.525Z,4.04
2023-01-03T11:03:04.437Z,3.71
2023-01-03T11:04:03.199Z,3.07
2023-01-03T11:05:03.713Z,4.21
2023-01-03T11:06:04.388Z,4.81
2023-01-03T11:07:03.741Z,5.05
2023-01-03T11:08:04.119Z,4.89
2023-01-03T11:09:03.724Z,5.11
2023-01-03T11:10:04.067Z,3.64
2023-01-03T11:11:04.438Z,2.39
2023-01-03T11:12:03.471Z,3.04
2023-01-03T11:13:03.664Z,3.73
2023-01-03T11:14:03.917Z,3.45
2023-01-03T11:15:04.267Z,2.71
2023-01-03T11:16:03.557Z,2.23
2023-01-03T11:17:04.096Z,2.08
2023-01-03T11:18:04.302Z,1.63
2023-01-03T11:19:03.737Z,2.42
2023-01-03T11:20:03.475Z,2.06
2023-01-03T11:21:03.912Z,1.61
2023-01-03T11:22:03.957Z,2.39
2023-01-03T11:23:04.034Z,2.58
2023-01-03T11:24:03.902Z,1.49
2023-01-03T11:25:04.017Z,2.61
2023-01-03T11:26:04.184Z,3.38
2023-01-03T11:27:04.576Z,3.33
2023-01-03T11:28:03.793Z,2.08
2023-01-03T11:29:04.288Z,2.41
2023-01-03T11:30:04.152Z,1.8
2023-01-03T11:31:04.632Z,3.14
2023-01-03T11:32:04.619Z,2.85
2023-01-03T11:33:04.359Z,2.88
2023-01-03T11:34:03.637Z,2.96
2023-01-03T11:35:33.811Z,2.38
2023-01-03T11:36:03.894Z,2.66
2023-01-03T11:37:03.500Z,2.51
2023-01-03T11:38:03.796Z,3.18
2023-01-03T11:39:05.589Z,2.78
2023-01-03T11:40:04.560Z,2.78
2023-01-03T11:41:02.873Z,2.43
2023-01-03T11:42:04.608Z,3.92
2023-01-03T11:43:03.486Z,3.92
2023-01-03T11:44:03.852Z,3.72
2023-01-03T11:45:03.602Z,2.52
2023-01-03T11:46:04.382Z,2.24
2023-01-03T11:47:04.236Z,2.49
2023-01-03T11:48:04.394Z,2.83
2023-01-03T11:49:04.089Z,3.22
2023-01-03T11:50:03.508Z,2.44
2023-01-03T11:51:03.840Z,2.14
2023-01-03T11:52:03.955Z,2.49
2023-01-03T11:53:04.713Z,2.16
2023-01-03T11:54:03.894Z,1.97
2023-01-03T11:55:04.192Z,1.91
2023-01-03T11:56:04.548Z,2.45
2023-01-03T11:57:04.405Z,3.23
2023-01-03T11:58:04.500Z,2.97
2023-01-03T11:59:03.685Z,2.47
2023-01-03T12:00:03.598Z,2.03
2023-01-03T12:01:04.698Z,2.13
2023-01-03T12:02:04.042Z,2.55
2023-01-03T12:03:04.236Z,2.04
2023-01-03T12:04:04.415Z,2.21
2023-01-03T12:05:03.591Z,2.33
2023-01-03T12:06:04.027Z,2.41
2023-01-03T12:07:48.450Z,1.45
2023-01-03T12:09:03.243Z,2.22
2023-01-03T12:10:03.550Z,2.35
2023-01-03T12:11:04.020Z,1.72
2023-01-03T12:12:03.747Z,2.18
2023-01-03T12:13:04.052Z,1.58
2023-01-03T12:14:04.208Z,1.64
2023-01-03T12:15:03.001Z,2.16
2023-01-03T12:16:04.378Z,2.24
2023-01-03T12:17:04.419Z,1.45
2023-01-03T12:18:04.158Z,2.1
2023-01-03T12:19:11.897Z,2.47
2023-01-03T12:20:03.852Z,1.81
2023-01-03T12:21:04.307Z,2.05
2023-01-03T12:22:04.080Z,1.64
2023-01-03T12:23:04.530Z,2.69
2023-01-03T12:24:03.735Z,2.58
2023-01-03T12:25:07.788Z,2.14
2023-01-03T12:26:04.251Z,2.08
2023-01-03T12:27:03.478Z,1.48
2023-01-03T12:28:04.411Z,1.82
2023-01-03T12:29:04.182Z,2.06
2023-01-03T12:30:04.105Z,1.54
2023-01-03T12:31:04.292Z,1.54
2023-01-03T12:32:04.209Z,1.19
2023-01-03T12:33:04.390Z,1.98
2023-01-03T12:34:03.599Z,1.12
2023-01-03T12:35:04.429Z,1.42
2023-01-03T12:36:03.651Z,2.04
2023-01-03T12:37:03.953Z,1.69
2023-01-03T12:38:04.210Z,2.51
2023-01-03T12:39:03.331Z,1.64
2023-01-03T12:40:03.786Z,1.96
2023-01-03T12:41:04.163Z,1.65
2023-01-03T12:42:04.356Z,1.56
2023-01-03T12:43:03.608Z,2.14
2023-01-03T12:44:04.569Z,1.83
2023-01-03T12:45:04.196Z,2.55
2023-01-03T12:46:12.513Z,1.78
2023-01-03T12:47:04.062Z,2.32
2023-01-03T12:48:03.785Z,1.67
2023-01-03T12:49:04.000Z,1.16
2023-01-03T12:50:04.354Z,0.96
2023-01-03T12:51:03.440Z,2.06
2023-01-03T12:52:03.770Z,2.05
2023-01-03T12:53:04.081Z,1.89
2023-01-03T12:54:04.347Z,1.73
2023-01-03T12:55:03.763Z,1.48
2023-01-03T12:56:04.089Z,2.18
2023-01-03T12:57:04.360Z,2.47
2023-01-03T12:58:04.686Z,1.53
2023-01-03T12:59:03.466Z,1.79
2023-01-03T13:00:03.682Z,2.24
2023-01-03T13:01:04.329Z,1.9
2023-01-03T13:02:04.588Z,1.58
2023-01-03T13:03:04.918Z,1.89
2023-01-03T13:04:04.011Z,1.41
2023-01-03T13:05:04.043Z,1.33
2023-01-03T13:06:03.865Z,1.6
2023-01-03T13:07:04.347Z,1.58
2023-01-03T13:08:03.660Z,1.24
2023-01-03T13:09:03.903Z,1.65
2023-01-03T13:10:04.360Z,1.94
2023-01-03T13:11:04.057Z,1.67
2023-01-03T13:12:03.774Z,1.48
2023-01-03T13:13:03.744Z,1.56
2023-01-03T13:14:04.012Z,1.79
2023-01-03T13:15:04.161Z,1.71
2023-01-03T13:16:03.643Z,1.19
2023-01-03T13:17:02.705Z,2.04
2023-01-03T13:18:04.357Z,1.41
2023-01-03T13:19:04.378Z,1.7
2023-01-03T13:20:04.354Z,1.76
2023-01-03T13:21:04.145Z,1.76